Quiberon — FNQY — position and weather

sailwx.info

Track history (hours):
 
Tides and Currents Weather Stations Pressure Air Temp Water Temp Dewpoint Dewpoint Depression Visibility Wind Speed Wind Dir Waves Ship Positions

Quiberon

Operator: Brittany Ferries

Last reported at 2018-May-24 23:33 UTC. Time now 2018-May-27 08:12 UTC.
Position N 44°53' W 000°32'.

Length 25 m; draft 4.8 m.

Type: Tug. MMSI: 228296800.

Date/timePositionNaut miles runAvg speedWind from/ knotsBaromVisibWave heightAir tempDewpointWater temp
2018-May-24 23:33N 44°53' W 000°32'0 0.1
2018-May-24 23:30N 44°53' W 000°32'0 0.0
2018-May-24 03:59N 44°53' W 000°32'5 1.8
2018-May-24 01:21N 44°58' W 000°32'2 2.4
2018-May-24 00:30N 44°60' W 000°33'1 3.0
2018-May-24 00:01N 45°01' W 000°35'1 1.4
2018-May-23 23:30N 45°00' W 000°34'7 0.3
2018-May-22 23:04N 44°53' W 000°32'0 0.0
2018-May-22 20:55N 44°53' W 000°32'  
Track history (hours):
 
Tides and Currents Weather Stations Pressure Air Temp Water Temp Dewpoint Dewpoint Depression Visibility Wind Speed Wind Dir Waves Ship Positions

Quiberon

Operator: Brittany Ferries

Last reported at 2018-May-24 23:33 UTC. Time now 2018-May-27 08:12 UTC.
Position N 44°53' W 000°32'.

Length 25 m; draft 4.8 m.

Type: Tug. MMSI: 228296800.

Date/timePositionNaut miles runAvg speedWind from/ knotsBaromVisibWave heightAir tempDewpointWater temp
2018-May-24 23:33N 44°53' W 000°32'0 0.1
2018-May-24 23:30N 44°53' W 000°32'0 0.0
2018-May-24 03:59N 44°53' W 000°32'5 1.8
2018-May-24 01:21N 44°58' W 000°32'2 2.4
2018-May-24 00:30N 44°60' W 000°33'1 3.0
2018-May-24 00:01N 45°01' W 000°35'1 1.4
2018-May-23 23:30N 45°00' W 000°34'7 0.3
2018-May-22 23:04N 44°53' W 000°32'0 0.0
2018-May-22 20:55N 44°53' W 000°32'  

Dump ship's entire track history